Time;durP1;ratioP1;P1;durP2;ratioP2;P2;SDS_P1;SDS_P2;PMS_P1;PMS_P2;Temp;Humidity;BMP_temperature;BMP_pressure;BME280_temperature;BME280_humidity;BME280_pressure;Samples;Min_cycle;Max_cycle;Signal;HPM_P1;HPM_P2
2022/01/17 04:17:34;;;;;;;;;;;;;;;2.68;97.81;101302.56;5658358;22;19987;-87
2022/01/17 04:20:05;;;;;;;;;;;;;;;2.59;97.60;101294.59;5029841;28;19953;-87
2022/01/17 04:22:34;;;;;;;;;;;;;;;2.54;97.21;101296.28;5032941;28;20016;-88
2022/01/17 04:25:00;;;;;;;;;;;;;;;2.48;97.05;101290.94;5033853;28;19960;-87
2022/01/17 04:27:25;;;;;;;;;;;;;;;2.40;96.74;101284.72;5033524;28;19975;-86
2022/01/17 04:29:50;;;;;;;;;;;;;;;2.36;96.51;101295.16;5033599;28;19920;-87
2022/01/17 04:32:16;;;;;;;;;;;;;;;2.30;96.36;101291.56;5032358;28;19924;-87
2022/01/17 04:34:41;;;;;;;;;;;;;;;2.29;96.07;101285.44;5033013;28;19921;-87
2022/01/17 04:37:08;;;;;;;;;;;;;;;2.25;95.87;101286.25;5033604;28;19951;-87
2022/01/17 04:39:34;;;;;;;;;;;;;;;2.22;95.56;101286.22;5015897;28;19921;-87
2022/01/17 04:41:59;;;;;;;;;;;;;;;2.17;95.50;101290.47;5033374;28;19921;-86
2022/01/17 04:47:08;;;;;;;;;;;;;;;2.11;95.17;101277.31;5032055;28;19967;-86
2022/01/17 04:49:33;;;;;;;;;;;;;;;2.13;95.86;101279.09;5033402;28;19956;-86
2022/01/17 04:51:58;;;;;;;;;;;;;;;2.14;96.69;101275.63;5015358;28;19940;-85
2022/01/17 04:56:58;;;;;;;;;;;;;;;2.10;97.40;101263.34;5033138;28;19921;-86
2022/01/17 04:59:23;;;;;;;;;;;;;;;2.03;97.71;101263.22;5033175;28;20452;-85
2022/01/17 05:01:48;;;;;;;;;;;;;;;2.04;97.60;101262.38;5031739;28;19999;-86
2022/01/17 05:04:14;;;;;;;;;;;;;;;2.02;97.78;101261.50;5033082;28;20047;-86
2022/01/17 05:06:39;;;;;;;;;;;;;;;1.94;97.71;101272.69;5033075;28;19921;-86
2022/01/17 05:09:04;;;;;;;;;;;;;;;1.93;97.48;101267.44;5032964;28;19921;-86
2022/01/17 05:11:31;;;;;;;;;;;;;;;1.86;97.15;101261.22;5032880;28;20245;-85
2022/01/17 05:13:56;;;;;;;;;;;;;;;1.87;96.84;101272.56;5032822;28;19921;-85
2022/01/17 05:16:29;;;;;;;;;;;;;;;1.84;96.75;101290.84;5032377;28;20247;-85
2022/01/17 08:59:17;;;;;;;;;;;;;;;0.74;82.05;101418.34;5858412;23;19941;-85
2022/01/17 09:01:42;;;;;;;;;;;;;;;0.75;81.63;101418.38;4969720;28;20415;-85
2022/01/17 09:04:08;;;;;;;;;;;;;;;0.73;81.57;101414.81;4992343;28;20024;-85
2022/01/17 09:06:33;;;;;;;;;;;;;;;0.79;81.53;101411.50;4992435;28;19957;-86
2022/01/17 09:08:58;;;;;;;;;;;;;;;0.79;81.44;101421.94;4991306;28;19965;-86
2022/01/17 09:11:24;;;;;;;;;;;;;;;0.82;81.56;101441.16;4991723;28;19961;-85
2022/01/17 09:13:49;;;;;;;;;;;;;;;0.80;81.26;101440.25;4990897;28;20266;-86
2022/01/17 09:16:14;;;;;;;;;;;;;;;0.79;81.04;101443.69;4992522;28;19918;-85
2022/01/17 09:18:40;;;;;;;;;;;;;;;0.80;80.93;101440.25;4974543;28;19924;-86
2022/01/17 09:21:05;;;;;;;;;;;;;;;0.81;81.06;101439.38;4988539;28;19922;-84
2022/01/17 09:23:30;;;;;;;;;;;;;;;0.85;80.96;101449.06;4975472;28;20009;-85
2022/01/17 09:25:56;;;;;;;;;;;;;;;0.84;80.88;101435.97;4975558;28;19921;-85
2022/01/17 09:28:21;;;;;;;;;;;;;;;0.87;80.82;101446.47;4974251;28;20105;-85
2022/01/17 09:30:47;;;;;;;;;;;;;;;0.90;80.38;101452.66;4975590;28;19922;-86
2022/01/17 09:33:12;;;;;;;;;;;;;;;0.91;80.47;101453.53;4975328;28;19918;-85
2022/01/17 09:35:38;;;;;;;;;;;;;;;0.92;80.53;101449.19;4974434;28;19926;-85
2022/01/17 09:38:03;;;;;;;;;;;;;;;0.94;80.48;101452.72;4989760;28;20415;-85
2022/01/17 09:40:28;;;;;;;;;;;;;;;0.93;80.34;101457.06;4991117;28;20036;-85
2022/01/17 09:42:56;;;;;;;;;;;;;;;0.94;80.23;101448.38;4975142;28;19925;-85
2022/01/17 09:45:22;;;;;;;;;;;;;;;0.97;80.17;101455.41;4990922;28;19918;-85
2022/01/17 09:47:47;;;;;;;;;;;;;;;0.96;79.90;101466.69;4991586;28;20392;-86
2022/01/17 09:50:17;;;;;;;;;;;;;;;0.99;79.84;101478.09;4975428;28;19918;-87
2022/01/17 09:52:47;;;;;;;;;;;;;;;1.02;79.78;101485.09;4983152;28;20021;-86
2022/01/17 09:55:23;;;;;;;;;;;;;;;1.04;79.81;101512.16;4974387;28;20344;-85
2022/01/17 09:57:52;;;;;;;;;;;;;;;1.06;79.80;101502.59;4974681;28;19926;-85
2022/01/17 10:00:20;;;;;;;;;;;;;;;1.06;79.80;101489.56;4973488;28;19925;-86
2022/01/17 10:02:45;;;;;;;;;;;;;;;1.05;79.81;101503.44;4990576;28;19928;-85
2022/01/17 10:05:11;;;;;;;;;;;;;;;1.03;79.68;101502.53;4990718;28;19992;-85
2022/01/17 10:07:52;;;;;;;;;;;;;;;1.05;79.71;101478.25;4990758;28;19925;-85
2022/01/17 10:10:38;;;;;;;;;;;;;;;1.05;79.52;101499.13;4985431;28;20286;-85
2022/01/17 10:13:05;;;;;;;;;;;;;;;1.05;79.40;101493.00;4982309;28;19922;-85
2022/01/17 10:15:43;;;;;;;;;;;;;;;1.07;79.26;101478.28;4980538;28;20005;-84
2022/01/17 10:18:21;;;;;;;;;;;;;;;1.10;79.23;101496.59;4962994;28;20312;-85
2022/01/17 10:20:52;;;;;;;;;;;;;;;1.08;79.35;101493.94;4964478;28;20415;-85
2022/01/17 10:23:29;;;;;;;;;;;;;;;1.06;78.98;101490.44;4980599;28;19941;-86
2022/01/17 10:26:04;;;;;;;;;;;;;;;1.08;78.94;101488.72;4981809;28;20017;-85
2022/01/17 10:31:22;;;;;;;;;;;;;;;1.08;78.50;101493.06;4982216;28;19918;-85
2022/01/17 10:36:44;;;;;;;;;;;;;;;1.14;78.58;101479.28;4982635;28;20048;-85
2022/01/17 10:39:09;;;;;;;;;;;;;;;1.15;78.58;101481.94;4963607;28;19921;-84
2022/01/17 10:41:35;;;;;;;;;;;;;;;1.13;78.31;101488.84;4981404;28;19922;-85
2022/01/17 10:44:00;;;;;;;;;;;;;;;1.09;78.36;101485.28;4963513;28;20289;-86
2022/01/17 10:46:25;;;;;;;;;;;;;;;1.14;78.56;101482.78;4982782;28;20373;-84
2022/01/17 10:48:56;;;;;;;;;;;;;;;1.15;78.06;101489.78;4982624;28;19921;-85
2022/01/17 10:51:41;;;;;;;;;;;;;;;1.23;78.12;101503.00;4963927;28;19926;-84
2022/01/17 10:54:17;;;;;;;;;;;;;;;1.23;78.01;101498.66;4977850;28;19929;-84
2022/01/17 10:56:54;;;;;;;;;;;;;;;1.22;78.33;101509.06;4981003;28;19926;-85
2022/01/17 10:59:31;;;;;;;;;;;;;;;1.24;78.32;101512.59;4981071;28;20041;-84
2022/01/17 11:01:56;;;;;;;;;;;;;;;1.23;78.31;101519.56;4980257;28;19932;-84
2022/01/17 11:04:39;;;;;;;;;;;;;;;1.30;78.42;101514.47;4982399;28;19922;-83
2022/01/17 11:07:06;;;;;;;;;;;;;;;1.21;77.95;101513.41;4963268;28;19948;-86
2022/01/17 11:10:00;;;;;;;;;;;;;;;1.20;77.85;101518.59;4981614;28;19925;-84
2022/01/17 11:12:28;;;;;;;;;;;;;;;1.27;78.02;101505.69;4965400;28;20420;-85
2022/01/17 11:14:56;;;;;;;;;;;;;;;1.25;77.97;101503.91;4979925;28;19929;-86
2022/01/17 11:17:24;;;;;;;;;;;;;;;1.29;77.65;101499.63;4980572;28;20377;-83
2022/01/17 11:20:07;;;;;;;;;;;;;;;1.30;77.81;101490.97;4982527;28;19929;-84
2022/01/17 11:22:36;;;;;;;;;;;;;;;1.41;77.73;101492.09;4985690;28;20440;-83
2022/01/17 11:25:03;;;;;;;;;;;;;;;1.39;77.10;101491.19;4985402;28;19966;-84
2022/01/17 11:27:29;;;;;;;;;;;;;;;1.38;77.03;101492.88;4968751;28;19922;-84
2022/01/17 11:29:55;;;;;;;;;;;;;;;1.38;76.99;101495.50;4967427;28;20335;-84
2022/01/17 11:32:20;;;;;;;;;;;;;;;1.41;77.17;101494.69;4968170;28;19919;-83
2022/01/17 11:34:45;;;;;;;;;;;;;;;1.40;77.21;101495.53;4984915;28;19971;-84
2022/01/17 11:37:11;;;;;;;;;;;;;;;1.48;77.39;101493.09;4986235;28;19921;-84
2022/01/17 11:39:47;;;;;;;;;;;;;;;1.39;77.29;101504.25;4985932;28;20281;-85
2022/01/17 11:42:30;;;;;;;;;;;;;;;1.47;77.30;101492.22;4984840;28;19923;-84
2022/01/17 11:44:56;;;;;;;;;;;;;;;1.40;76.90;101503.38;4984030;28;19925;-84
2022/01/17 11:47:40;;;;;;;;;;;;;;;1.40;76.91;101499.00;4985191;28;19914;-84
2022/01/17 11:50:24;;;;;;;;;;;;;;;1.42;76.70;101496.44;4982881;28;19921;-84
2022/01/17 11:52:49;;;;;;;;;;;;;;;1.54;76.75;101499.31;4984861;28;19961;-84
2022/01/17 11:55:34;;;;;;;;;;;;;;;1.48;76.81;101499.19;4983630;28;19929;-85
2022/01/17 11:58:21;;;;;;;;;;;;;;;1.44;76.70;101497.38;4984990;28;19968;-84
2022/01/17 12:00:48;;;;;;;;;;;;;;;1.45;76.80;101494.81;4985083;28;19926;-83
2022/01/17 12:03:18;;;;;;;;;;;;;;;1.48;76.95;101483.50;4985383;28;20396;-84
2022/01/17 12:05:43;;;;;;;;;;;;;;;1.46;76.32;101472.16;4985119;28;19965;-84
2022/01/17 12:08:09;;;;;;;;;;;;;;;1.51;76.06;101473.13;4984944;28;20340;-85
2022/01/17 12:10:39;;;;;;;;;;;;;;;1.47;75.87;101481.78;4984411;28;20032;-84
2022/01/17 12:13:11;;;;;;;;;;;;;;;1.54;75.69;101507.16;4966577;28;20356;-84
2022/01/17 12:15:55;;;;;;;;;;;;;;;1.58;75.32;101516.84;4982554;28;20051;-85
2022/01/17 12:18:26;;;;;;;;;;;;;;;1.54;75.26;101530.69;4982748;28;19929;-83
2022/01/17 12:20:52;;;;;;;;;;;;;;;1.55;75.23;101522.00;4967359;28;19929;-84
2022/01/17 12:23:25;;;;;;;;;;;;;;;1.57;75.13;101514.19;4967630;28;19922;-84
2022/01/17 12:25:50;;;;;;;;;;;;;;;1.60;75.37;101509.03;4984443;28;19921;-84
2022/01/17 12:28:18;;;;;;;;;;;;;;;1.54;75.13;101512.38;4983233;28;20840;-85
2022/01/17 12:30:45;;;;;;;;;;;;;;;1.57;75.35;101520.28;4982964;28;20448;-84
2022/01/17 12:33:29;;;;;;;;;;;;;;;1.69;75.26;101513.56;4982995;28;19925;-84
2022/01/17 12:35:55;;;;;;;;;;;;;;;1.68;75.03;101481.34;4969304;28;19945;-85
2022/01/17 12:38:41;;;;;;;;;;;;;;;1.65;75.08;101470.81;4964985;28;19969;-84
2022/01/17 12:41:07;;;;;;;;;;;;;;;1.71;74.89;101484.00;4966272;28;19953;-84
2022/01/17 12:43:33;;;;;;;;;;;;;;;1.68;74.53;101476.09;4984103;28;19918;-84
2022/01/17 12:46:07;;;;;;;;;;;;;;;1.76;74.22;101457.97;4984110;28;20384;-85
2022/01/17 12:48:33;;;;;;;;;;;;;;;1.67;74.12;101460.41;4983292;28;20017;-84
2022/01/17 12:51:05;;;;;;;;;;;;;;;1.89;75.83;101464.31;4982608;28;20289;-84
2022/01/17 12:53:30;;;;;;;;;;;;;;;2.23;78.62;101467.56;4984233;28;19972;-85
2022/01/17 12:56:00;;;;;;;;;;;;;;;2.42;81.34;101468.78;4984454;28;19961;-84
2022/01/17 12:58:27;;;;;;;;;;;;;;;2.50;83.56;101475.88;4982879;28;19957;-85
2022/01/17 13:00:52;;;;;;;;;;;;;;;2.53;85.18;101480.31;4982859;28;19949;-85
2022/01/17 13:03:18;;;;;;;;;;;;;;;2.59;86.73;101477.78;4984308;28;19918;-85
2022/01/17 13:05:44;;;;;;;;;;;;;;;2.54;87.86;101471.59;4982601;28;19922;-84
2022/01/17 13:08:10;;;;;;;;;;;;;;;2.54;88.98;101466.38;4984298;28;19929;-84
2022/01/17 13:10:35;;;;;;;;;;;;;;;2.44;89.96;101459.19;4983198;28;19929;-84
2022/01/17 13:13:01;;;;;;;;;;;;;;;2.45;91.42;101460.97;4983612;28;19922;-84
2022/01/17 13:15:27;;;;;;;;;;;;;;;2.45;92.63;101447.91;4982166;28;19918;-85
2022/01/17 13:17:53;;;;;;;;;;;;;;;2.49;93.79;101439.22;4983468;28;20381;-85
2022/01/17 13:20:19;;;;;;;;;;;;;;;2.54;94.92;101442.81;4983505;28;19922;-85
2022/01/17 13:23:07;;;;;;;;;;;;;;;2.52;95.89;101447.13;4983412;28;20281;-85
2022/01/17 13:25:32;;;;;;;;;;;;;;;2.52;97.50;101453.25;4982027;28;19933;-85
2022/01/17 13:27:59;;;;;;;;;;;;;;;2.54;99.10;101440.19;4984092;28;19922;-85
2022/01/17 13:30:25;;;;;;;;;;;;;;;2.71;100.00;101454.44;4981897;28;19933;-86
2022/01/17 13:32:50;;;;;;;;;;;;;;;2.97;100.00;101451.34;4965656;28;19918;-85
2022/01/17 13:35:22;;;;;;;;;;;;;;;3.15;100.00;101465.56;4983470;28;20370;-86
2022/01/17 13:37:48;;;;;;;;;;;;;;;3.27;100.00;101466.63;4983524;28;19926;-86
2022/01/17 13:40:16;;;;;;;;;;;;;;;3.36;100.00;101455.38;4964018;28;19933;-84
2022/01/17 13:42:45;;;;;;;;;;;;;;;3.45;100.00;101444.16;4982559;28;20397;-86
2022/01/17 13:45:11;;;;;;;;;;;;;;;3.54;100.00;101430.25;4981990;28;20439;-85
2022/01/17 13:47:38;;;;;;;;;;;;;;;3.58;100.00;101417.22;4983219;28;20008;-86
2022/01/17 13:50:04;;;;;;;;;;;;;;;3.64;100.00;101411.19;4983502;28;19929;-85
2022/01/17 13:52:29;;;;;;;;;;;;;;;3.71;100.00;101404.25;4980693;28;19921;-85
2022/01/17 13:54:55;;;;;;;;;;;;;;;3.76;100.00;101398.19;4965954;28;19917;-84
2022/01/17 13:57:22;;;;;;;;;;;;;;;3.81;100.00;101396.50;4982862;28;19918;-86
2022/01/17 13:59:53;;;;;;;;;;;;;;;3.87;100.00;101400.06;4958700;28;19973;-86
2022/01/17 14:02:18;;;;;;;;;;;;;;;3.93;100.00;101394.88;4963638;28;19922;-86
2022/01/17 14:04:44;;;;;;;;;;;;;;;3.97;100.00;101392.31;4963132;28;19954;-85
2022/01/17 14:07:29;;;;;;;;;;;;;;;4.03;100.00;101395.84;4945744;28;19945;-85
2022/01/17 14:09:56;;;;;;;;;;;;;;;4.07;100.00;101403.75;4960997;28;19926;-86
2022/01/17 14:12:24;;;;;;;;;;;;;;;4.10;100.00;101413.38;4946817;28;19923;-86
2022/01/17 14:14:52;;;;;;;;;;;;;;;4.17;100.00;101409.97;4945312;28;19922;-86
2022/01/17 14:17:25;;;;;;;;;;;;;;;4.21;100.00;101416.13;4946218;28;19926;-85
2022/01/17 14:19:50;;;;;;;;;;;;;;;4.24;100.00;101408.28;4946794;28;19974;-86
2022/01/17 14:22:17;;;;;;;;;;;;;;;4.28;100.00;101417.94;4963324;28;19930;-85
2022/01/17 14:24:47;;;;;;;;;;;;;;;4.32;100.00;101424.97;4962358;28;19930;-86
2022/01/17 14:27:18;;;;;;;;;;;;;;;3.70;100.00;101440.09;4963249;28;20305;-86
2022/01/17 14:29:44;;;;;;;;;;;;;;;3.09;100.00;101435.81;4961923;28;19918;-85
2022/01/17 14:32:11;;;;;;;;;;;;;;;2.85;100.00;101436.31;4945777;28;19918;-85
2022/01/17 14:34:37;;;;;;;;;;;;;;;2.67;100.00;101431.69;4963441;28;20530;-86
2022/01/17 14:37:04;;;;;;;;;;;;;;;2.57;100.00;101424.56;4961491;28;20017;-85
2022/01/17 14:39:30;;;;;;;;;;;;;;;2.45;100.00;101427.84;4946083;28;19919;-86
2022/01/17 14:41:56;;;;;;;;;;;;;;;2.42;100.00;101432.13;4945817;28;19918;-85
2022/01/17 14:44:22;;;;;;;;;;;;;;;2.39;100.00;101442.56;4961821;28;19923;-86
2022/01/17 14:46:49;;;;;;;;;;;;;;;2.31;100.00;101451.16;4963146;28;19948;-85
2022/01/17 14:49:17;;;;;;;;;;;;;;;2.30;100.00;101452.00;4962344;28;19918;-85
2022/01/17 14:51:47;;;;;;;;;;;;;;;2.25;99.75;101455.38;4959992;28;19966;-84
2022/01/17 14:54:16;;;;;;;;;;;;;;;2.14;99.16;101458.69;4942320;28;19927;-88
2022/01/17 15:02:03;;;;;;;;;;;;;;;2.02;97.05;101478.50;4965579;28;19922;-85
2022/01/17 15:04:33;;;;;;;;;;;;;;;1.97;96.46;101487.13;4946614;28;19926;-86
2022/01/17 15:06:59;;;;;;;;;;;;;;;1.97;96.00;101486.25;4962236;28;20258;-85
2022/01/17 15:09:24;;;;;;;;;;;;;;;1.90;95.25;101490.50;4968324;28;19977;-86
2022/01/17 15:11:49;;;;;;;;;;;;;;;1.86;94.55;101482.56;4962816;28;19922;-86
2022/01/17 15:14:14;;;;;;;;;;;;;;;1.81;93.94;101487.69;4965021;28;19922;-85
2022/01/17 15:16:40;;;;;;;;;;;;;;;1.79;93.53;101484.19;4949576;28;19929;-85
2022/01/17 15:19:06;;;;;;;;;;;;;;;1.75;92.99;101488.44;4947799;28;20012;-85
2022/01/17 15:21:31;;;;;;;;;;;;;;;1.73;92.58;101484.91;4948569;28;19928;-85
2022/01/17 15:23:57;;;;;;;;;;;;;;;1.70;92.19;101490.06;4947843;28;19930;-85
2022/01/17 15:26:24;;;;;;;;;;;;;;;1.65;91.70;101496.06;4964750;28;19981;-84
2022/01/17 15:28:49;;;;;;;;;;;;;;;1.63;91.27;101490.81;4948220;28;19922;-84
2022/01/17 15:31:15;;;;;;;;;;;;;;;1.63;90.84;101494.31;4949708;28;19922;-84
2022/01/17 15:33:43;;;;;;;;;;;;;;;1.58;90.74;101500.25;4947753;28;19988;-84
2022/01/17 15:36:09;;;;;;;;;;;;;;;1.55;90.30;101508.06;4949585;28;19918;-85
2022/01/17 15:38:34;;;;;;;;;;;;;;;1.47;89.73;101505.28;4949696;28;19926;-85
2022/01/17 15:40:59;;;;;;;;;;;;;;;1.49;89.71;101506.19;4964519;28;20013;-85
2022/01/17 15:43:25;;;;;;;;;;;;;;;1.48;89.50;101493.97;4965975;28;20020;-85
2022/01/17 15:45:51;;;;;;;;;;;;;;;1.42;89.08;101493.81;4966729;28;20282;-85
2022/01/17 15:48:18;;;;;;;;;;;;;;;1.38;88.85;101499.84;4964333;28;19923;-86
2022/01/17 15:50:44;;;;;;;;;;;;;;;1.35;88.70;101499.78;4948714;28;19925;-87
2022/01/17 15:53:09;;;;;;;;;;;;;;;1.38;88.54;101507.69;4966110;28;20297;-86
2022/01/17 15:55:35;;;;;;;;;;;;;;;1.30;88.48;101510.13;4946876;28;19926;-87
2022/01/17 15:58:02;;;;;;;;;;;;;;;1.30;88.46;101506.63;4965307;28;19929;-85
2022/01/17 16:00:28;;;;;;;;;;;;;;;1.26;88.22;101508.28;4963294;28;19926;-86
2022/01/17 16:02:57;;;;;;;;;;;;;;;1.23;88.15;101501.28;4963397;28;20259;-86
2022/01/17 16:05:22;;;;;;;;;;;;;;;1.22;87.95;101490.78;4949682;28;19965;-86
2022/01/17 16:07:47;;;;;;;;;;;;;;;1.20;88.02;101497.72;4947481;28;19974;-86
2022/01/17 16:10:13;;;;;;;;;;;;;;;1.19;87.89;101502.03;4965876;28;19926;-85
2022/01/17 16:12:39;;;;;;;;;;;;;;;1.20;87.93;101518.59;4946430;28;19922;-84
2022/01/17 16:15:05;;;;;;;;;;;;;;;1.19;87.92;101522.06;4963882;28;19925;-84
2022/01/17 16:17:31;;;;;;;;;;;;;;;1.15;87.67;101520.19;4965404;28;19922;-85
2022/01/17 16:19:56;;;;;;;;;;;;;;;1.16;87.89;101516.75;4965842;28;19961;-86
2022/01/17 16:22:21;;;;;;;;;;;;;;;1.16;87.77;101525.47;4965398;28;19925;-86
2022/01/17 16:24:47;;;;;;;;;;;;;;;1.15;87.76;101521.13;4964802;28;19931;-85
2022/01/17 16:27:12;;;;;;;;;;;;;;;1.19;87.88;101530.75;4965065;28;20421;-85
2022/01/17 16:29:37;;;;;;;;;;;;;;;1.16;87.70;101535.91;4945978;28;19926;-85
2022/01/17 16:32:03;;;;;;;;;;;;;;;1.11;87.54;101529.69;4965149;28;19922;-85
2022/01/17 16:34:28;;;;;;;;;;;;;;;1.05;87.40;101522.63;4948508;28;20376;-85
2022/01/17 16:36:53;;;;;;;;;;;;;;;1.05;87.46;101524.34;4965617;28;19923;-84
2022/01/17 16:39:19;;;;;;;;;;;;;;;1.06;87.33;101519.16;4966670;28;19918;-84
2022/01/17 16:41:44;;;;;;;;;;;;;;;1.04;87.27;101518.25;4962789;28;20671;-84
2022/01/17 16:44:13;;;;;;;;;;;;;;;0.99;87.11;101524.19;4944977;28;20017;-85
2022/01/17 16:46:41;;;;;;;;;;;;;;;1.00;86.95;101534.66;4964945;28;19934;-85
2022/01/17 16:49:06;;;;;;;;;;;;;;;1.00;86.79;101542.50;4964882;28;19985;-85
2022/01/17 16:51:31;;;;;;;;;;;;;;;0.96;86.94;101548.50;4965157;28;19922;-84
2022/01/17 16:53:56;;;;;;;;;;;;;;;0.95;86.70;101548.47;4943693;28;19926;-85
2022/01/17 16:56:22;;;;;;;;;;;;;;;0.99;86.68;101545.06;4964714;28;20057;-86
2022/01/17 16:58:47;;;;;;;;;;;;;;;0.95;86.50;101549.34;4947628;28;19930;-84
2022/01/17 17:01:12;;;;;;;;;;;;;;;0.88;86.53;101553.53;4963060;28;19926;-84
2022/01/17 17:03:41;;;;;;;;;;;;;;;0.93;86.40;101548.44;4964186;28;19933;-86
2022/01/17 17:06:06;;;;;;;;;;;;;;;0.91;86.41;101563.19;4947168;28;19929;-85
2022/01/17 17:08:31;;;;;;;;;;;;;;;0.88;86.35;101563.97;4964397;28;19922;-85
2022/01/17 17:10:57;;;;;;;;;;;;;;;0.86;86.26;101563.06;4947974;28;19922;-86
2022/01/17 17:13:22;;;;;;;;;;;;;;;0.87;86.26;101551.75;4945810;28;20393;-85
2022/01/17 17:15:48;;;;;;;;;;;;;;;0.89;86.38;101549.19;4965488;28;20412;-85
2022/01/17 17:18:13;;;;;;;;;;;;;;;0.86;86.51;101560.44;4946745;28;19925;-85
2022/01/17 17:20:40;;;;;;;;;;;;;;;0.89;86.43;101564.84;4947074;28;20300;-86
2022/01/17 17:23:06;;;;;;;;;;;;;;;0.87;86.37;101567.41;4964652;28;19918;-86
2022/01/17 17:25:31;;;;;;;;;;;;;;;0.92;86.30;101571.88;4964421;28;20333;-86
2022/01/17 17:27:57;;;;;;;;;;;;;;;0.90;86.27;101582.28;4963984;28;19918;-86
2022/01/17 17:30:22;;;;;;;;;;;;;;;0.86;86.41;101578.72;4945897;28;20296;-85
2022/01/17 17:32:50;;;;;;;;;;;;;;;0.87;86.46;101588.28;4964018;28;20005;-85
2022/01/17 17:35:15;;;;;;;;;;;;;;;0.84;86.45;101572.56;4946549;28;19918;-87
2022/01/17 17:37:41;;;;;;;;;;;;;;;0.88;86.33;101566.56;4946124;28;19925;-85
2022/01/17 17:40:07;;;;;;;;;;;;;;;0.82;86.10;101563.81;4964552;28;19926;-85
2022/01/17 17:42:36;;;;;;;;;;;;;;;0.81;85.90;101569.88;4963873;28;19919;-86
2022/01/17 17:45:03;;;;;;;;;;;;;;;0.84;85.79;101577.78;4962500;28;19922;-86
2022/01/17 17:47:29;;;;;;;;;;;;;;;0.77;85.60;101565.44;4946000;28;19918;-86
2022/01/17 17:49:54;;;;;;;;;;;;;;;0.79;85.52;101568.94;4963962;28;20279;-88
2022/01/17 17:52:19;;;;;;;;;;;;;;;0.80;85.18;101575.03;4946820;28;19922;-86
2022/01/17 17:54:45;;;;;;;;;;;;;;;0.78;85.19;101572.38;4963749;28;19919;-85
2022/01/17 17:57:10;;;;;;;;;;;;;;;0.76;85.11;101565.38;4946051;28;20369;-86
2022/01/17 17:59:36;;;;;;;;;;;;;;;0.74;85.13;101578.41;4962572;28;19929;-87
2022/01/17 18:02:02;;;;;;;;;;;;;;;0.78;84.97;101576.75;4963851;28;20362;-86
2022/01/17 18:04:27;;;;;;;;;;;;;;;0.74;84.78;101573.19;4946804;28;19965;-85
2022/01/17 18:06:52;;;;;;;;;;;;;;;0.77;84.63;101573.25;4946192;28;19981;-86
2022/01/17 18:09:19;;;;;;;;;;;;;;;0.70;84.72;101563.50;4963665;28;19928;-86
2022/01/17 18:11:44;;;;;;;;;;;;;;;0.80;84.58;101562.91;4963798;28;20030;-86
2022/01/17 18:14:10;;;;;;;;;;;;;;;0.76;84.46;101562.78;4961885;28;20025;-85
2022/01/17 18:16:35;;;;;;;;;;;;;;;0.73;84.55;101553.13;4945858;28;19929;-85
2022/01/17 18:19:01;;;;;;;;;;;;;;;0.77;84.62;101556.72;4963987;28;19924;-85
2022/01/17 18:21:27;;;;;;;;;;;;;;;0.74;84.50;101557.53;4946287;28;19915;-86
2022/01/17 18:23:53;;;;;;;;;;;;;;;0.76;84.21;101544.50;4963103;28;19965;-85
2022/01/17 18:26:18;;;;;;;;;;;;;;;0.72;84.05;101548.78;4946307;28;19970;-86
2022/01/17 18:28:44;;;;;;;;;;;;;;;0.74;83.93;101557.53;4944535;28;19922;-86
2022/01/17 18:31:09;;;;;;;;;;;;;;;0.68;83.81;101547.78;4963302;28;19918;-86
2022/01/17 18:33:35;;;;;;;;;;;;;;;0.71;83.60;101554.81;4946251;28;19999;-87
2022/01/17 18:36:01;;;;;;;;;;;;;;;0.77;83.57;101562.81;4963650;28;20008;-85
2022/01/17 18:38:26;;;;;;;;;;;;;;;0.74;83.57;101565.34;4946019;28;19925;-87
2022/01/17 18:40:52;;;;;;;;;;;;;;;0.78;83.64;101576.75;4946254;28;19918;-86
2022/01/17 18:43:18;;;;;;;;;;;;;;;0.75;83.63;101561.00;4944797;28;19933;-86
2022/01/17 18:45:43;;;;;;;;;;;;;;;0.74;83.50;101551.44;4962959;28;19929;-85
2022/01/17 18:48:09;;;;;;;;;;;;;;;0.74;83.73;101564.47;4964550;28;19962;-87
2022/01/17 18:50:35;;;;;;;;;;;;;;;0.72;83.71;101587.91;4962838;28;20017;-86
2022/01/17 18:53:02;;;;;;;;;;;;;;;0.74;83.53;101590.56;4963141;28;20277;-86
2022/01/17 18:55:27;;;;;;;;;;;;;;;0.67;83.13;101564.31;4963390;28;19977;-86
2022/01/17 18:57:53;;;;;;;;;;;;;;;0.71;82.90;101554.81;4962719;28;19919;-86
2022/01/17 19:00:19;;;;;;;;;;;;;;;0.70;82.88;101574.84;4962081;28;19926;-86
2022/01/17 19:02:44;;;;;;;;;;;;;;;0.71;82.90;101580.91;4963628;28;20096;-88
2022/01/17 19:05:10;;;;;;;;;;;;;;;0.76;82.90;101584.53;4945530;28;19962;-87
2022/01/17 19:07:35;;;;;;;;;;;;;;;0.71;82.71;101587.00;4962783;28;19918;-87
2022/01/17 19:10:01;;;;;;;;;;;;;;;0.71;82.50;101591.34;4946378;28;19962;-87
2022/01/17 19:12:26;;;;;;;;;;;;;;;0.72;82.38;101586.19;4945107;28;19926;-86
2022/01/17 19:14:51;;;;;;;;;;;;;;;0.73;82.60;101600.09;4957844;28;20540;-87
2022/01/17 19:17:19;;;;;;;;;;;;;;;0.76;82.41;101586.25;4961749;28;19926;-86
2022/01/17 19:22:27;;;;;;;;;;;;;;;0.74;81.97;101574.91;4962962;28;19922;-86
2022/01/17 19:24:53;;;;;;;;;;;;;;;0.76;81.93;101594.09;4945333;28;19919;-87
2022/01/17 19:27:22;;;;;;;;;;;;;;;0.77;81.92;101599.34;4961398;28;19926;-87
2022/01/17 19:29:47;;;;;;;;;;;;;;;0.77;81.83;101588.03;4959945;28;20346;-85
2022/01/17 19:32:13;;;;;;;;;;;;;;;0.76;81.71;101584.53;4962065;28;19919;-85
2022/01/17 19:34:40;;;;;;;;;;;;;;;0.84;81.84;101582.13;4945234;28;19973;-87
2022/01/17 19:37:05;;;;;;;;;;;;;;;0.78;81.72;101601.09;4945652;28;19918;-87
2022/01/17 19:39:32;;;;;;;;;;;;;;;0.82;81.86;101600.34;4962924;28;20005;-87
2022/01/17 19:41:57;;;;;;;;;;;;;;;0.85;81.66;101608.25;4964924;28;19926;-86
2022/01/17 19:44:23;;;;;;;;;;;;;;;0.85;81.61;101615.22;4965495;28;19918;-85
2022/01/17 19:46:48;;;;;;;;;;;;;;;0.87;81.73;101630.06;4948298;28;20519;-88
2022/01/17 19:49:13;;;;;;;;;;;;;;;0.93;81.68;101628.47;4948814;28;19922;-87
2022/01/17 19:51:39;;;;;;;;;;;;;;;0.86;81.50;101620.47;4966379;28;19919;-87
2022/01/17 19:54:04;;;;;;;;;;;;;;;0.90;81.44;101629.25;4965967;28;19922;-85
2022/01/17 19:56:29;;;;;;;;;;;;;;;0.84;81.14;101619.53;4949138;28;20010;-85
2022/01/17 19:58:56;;;;;;;;;;;;;;;0.88;81.08;101621.41;4963124;28;19922;-86
2022/01/17 20:01:22;;;;;;;;;;;;;;;0.90;80.90;101627.53;4965221;28;19926;-86
2022/01/17 20:03:47;;;;;;;;;;;;;;;0.90;80.44;101624.03;4947824;28;19949;-87
2022/01/17 20:06:13;;;;;;;;;;;;;;;0.92;80.45;101640.63;4966080;28;19918;-87
2022/01/17 20:08:38;;;;;;;;;;;;;;;0.92;80.60;101632.78;4948368;28;20289;-86
2022/01/17 20:11:03;;;;;;;;;;;;;;;0.96;80.37;101628.53;4948351;28;19926;-86
2022/01/17 20:13:29;;;;;;;;;;;;;;;0.94;80.33;101640.66;4964771;28;20366;-87
2022/01/17 20:15:54;;;;;;;;;;;;;;;0.93;80.16;101651.97;4964635;28;19922;-87
2022/01/17 20:18:21;;;;;;;;;;;;;;;0.95;80.21;101638.09;4948711;28;19924;-85
2022/01/17 20:20:46;;;;;;;;;;;;;;;0.94;80.07;101628.47;4965382;28;20286;-86
2022/01/17 20:23:12;;;;;;;;;;;;;;;0.94;79.91;101636.31;4965262;28;20350;-86
2022/01/17 20:25:38;;;;;;;;;;;;;;;0.95;79.70;101645.06;4965464;28;19969;-86
2022/01/17 20:28:03;;;;;;;;;;;;;;;0.95;79.71;101637.22;4948224;28;19926;-86
2022/01/17 20:30:29;;;;;;;;;;;;;;;0.99;79.60;101652.09;4946559;28;19989;-87
2022/01/17 20:32:54;;;;;;;;;;;;;;;0.96;79.34;101642.47;4964999;28;19926;-87
2022/01/17 20:35:20;;;;;;;;;;;;;;;0.94;79.17;101651.97;4965342;28;19918;-87
2022/01/17 20:37:45;;;;;;;;;;;;;;;0.99;79.05;101650.41;4965208;28;19925;-86
2022/01/17 20:40:12;;;;;;;;;;;;;;;0.98;78.88;101668.63;4964867;28;19918;-86
2022/01/17 20:42:37;;;;;;;;;;;;;;;1.00;78.91;101651.28;4964906;28;19929;-87
2022/01/17 20:45:03;;;;;;;;;;;;;;;1.07;79.07;101648.00;4964377;28;19922;-86
2022/01/17 20:47:29;;;;;;;;;;;;;;;1.06;79.05;101652.31;4965009;28;20017;-86
2022/01/17 20:49:54;;;;;;;;;;;;;;;1.03;78.98;101652.22;4964747;28;20407;-86
2022/01/17 20:52:19;;;;;;;;;;;;;;;1.04;79.17;101658.34;4964030;28;19918;-87
2022/01/17 20:54:45;;;;;;;;;;;;;;;1.07;79.18;101658.44;4947393;28;19984;-86
2022/01/17 20:57:10;;;;;;;;;;;;;;;1.12;79.27;101659.44;4964968;28;20293;-86
2022/01/17 20:59:36;;;;;;;;;;;;;;;1.10;78.92;101663.69;4946152;28;19922;-87
2022/01/17 21:02:01;;;;;;;;;;;;;;;1.09;78.66;101667.19;4947079;28;19926;-85